createdAt,value
2022-08-18T00:02:03.087Z,4.80
2022-08-18T00:04:35.571Z,4.47
2022-08-18T00:07:08.147Z,5.05
2022-08-18T00:09:37.224Z,5.30
2022-08-18T00:12:09.647Z,5.20
2022-08-18T00:14:36.496Z,5.03
2022-08-18T00:17:03.868Z,5.32
2022-08-18T00:19:47.408Z,5.15
2022-08-18T00:22:18.155Z,5.43
2022-08-18T00:24:48.143Z,5.32
2022-08-18T00:27:23.986Z,4.53
2022-08-18T00:29:57.743Z,4.90
2022-08-18T00:32:28.593Z,5.20
2022-08-18T00:34:56.159Z,5.33
2022-08-18T00:37:24.359Z,5.18
2022-08-18T00:39:52.868Z,5.25
2022-08-18T00:42:29.140Z,5.05
2022-08-18T00:45:00.746Z,5.13
2022-08-18T00:47:42.478Z,5.43
2022-08-18T00:51:03.556Z,5.10
2022-08-18T00:53:49.599Z,5.03
2022-08-18T00:56:26.447Z,5.60
2022-08-18T00:58:58.287Z,5.45
2022-08-18T01:01:29.029Z,5.50
2022-08-18T01:04:05.707Z,5.43
2022-08-18T01:06:36.553Z,5.15
2022-08-18T01:09:03.868Z,5.07
2022-08-18T01:11:30.820Z,5.15
2022-08-18T01:13:58.851Z,5.05
2022-08-18T01:16:56.646Z,4.95
2022-08-18T01:19:44.592Z,5.05
2022-08-18T01:22:44.456Z,5.45
2022-08-18T01:25:29.675Z,5.20
2022-08-18T01:27:57.145Z,5.32
2022-08-18T01:30:28.015Z,5.00
2022-08-18T01:32:54.935Z,5.70
2022-08-18T01:35:25.620Z,6.13
2022-08-18T01:37:53.811Z,5.40
2022-08-18T01:41:24.532Z,5.35
2022-08-18T01:43:10.392Z,5.75
2022-08-18T01:45:37.227Z,5.40
2022-08-18T01:48:04.996Z,5.63
2022-08-18T01:50:34.747Z,5.90
2022-08-18T01:53:05.512Z,5.50
2022-08-18T01:55:35.702Z,5.40
2022-08-18T01:58:02.768Z,5.10
2022-08-18T02:00:29.993Z,6.07
2022-08-18T02:03:02.187Z,5.60
2022-08-18T02:05:51.128Z,6.40
2022-08-18T02:08:17.972Z,6.22
2022-08-18T02:10:44.834Z,6.03
2022-08-18T02:13:11.723Z,6.07
2022-08-18T02:15:38.525Z,5.85
2022-08-18T02:18:25.972Z,6.60
2022-08-18T02:21:19.212Z,6.13
2022-08-18T02:23:53.458Z,5.97
2022-08-18T02:26:21.014Z,5.45
2022-08-18T02:28:47.937Z,6.32
2022-08-18T02:31:18.015Z,5.97
2022-08-18T02:33:52.126Z,5.88
2022-08-18T02:36:20.569Z,5.70
2022-08-18T02:38:54.704Z,5.50
2022-08-18T02:41:29.652Z,6.22
2022-08-18T02:43:57.960Z,6.15
2022-08-18T02:46:29.666Z,6.43
2022-08-18T02:48:57.629Z,5.82
2022-08-18T02:51:25.711Z,6.30
2022-08-18T02:53:54.063Z,6.50
2022-08-18T02:56:40.222Z,6.80
2022-08-18T02:59:11.222Z,6.20
2022-08-18T03:01:41.352Z,6.10
2022-08-18T03:04:10.561Z,6.00
2022-08-18T03:06:39.342Z,6.45
2022-08-18T03:09:10.771Z,6.20
2022-08-18T03:11:38.347Z,6.53
2022-08-18T03:14:06.247Z,6.60
2022-08-18T03:16:47.623Z,6.07
2022-08-18T03:19:26.451Z,6.38
2022-08-18T03:21:55.045Z,7.07
2022-08-18T03:24:26.136Z,6.22
2022-08-18T03:26:54.307Z,6.50
2022-08-18T03:29:21.700Z,6.88
2022-08-18T03:31:49.123Z,6.40
2022-08-18T03:34:19.795Z,6.90
2022-08-18T03:36:48.564Z,7.00
2022-08-18T03:39:15.499Z,6.78
2022-08-18T03:41:58.536Z,7.13
2022-08-18T03:44:30.799Z,6.88
2022-08-18T03:46:57.945Z,7.20
2022-08-18T03:49:26.856Z,7.28
2022-08-18T03:51:53.796Z,6.80
2022-08-18T03:54:20.697Z,7.03
2022-08-18T03:56:49.497Z,7.25
2022-08-18T03:59:19.839Z,7.10
2022-08-18T04:01:49.307Z,7.20
2022-08-18T04:04:19.474Z,7.25
2022-08-18T04:06:55.825Z,7.38
2022-08-18T04:09:24.690Z,6.90
2022-08-18T04:11:52.278Z,7.53
2022-08-18T04:14:24.104Z,7.43
2022-08-18T04:19:26.421Z,6.78
2022-08-18T04:21:56.659Z,7.80
2022-08-18T04:24:24.524Z,7.25
2022-08-18T04:26:52.025Z,7.22
2022-08-18T04:29:23.329Z,7.50
2022-08-18T04:31:51.942Z,7.28
2022-08-18T04:34:20.784Z,6.90
2022-08-18T04:36:48.165Z,7.50
2022-08-18T04:39:15.694Z,7.45
2022-08-18T04:41:43.970Z,8.05
2022-08-18T04:44:12.485Z,8.70
2022-08-18T04:46:42.673Z,7.80
2022-08-18T04:49:10.887Z,6.80
2022-08-18T04:52:34.067Z,7.18
2022-08-18T04:54:28.958Z,6.53
2022-08-18T04:56:55.830Z,7.93
2022-08-18T04:59:22.739Z,7.30
2022-08-18T05:01:49.536Z,7.63
2022-08-18T05:04:17.733Z,7.57
2022-08-18T05:06:45.697Z,7.80
2022-08-18T05:09:16.772Z,7.13
2022-08-18T05:11:51.092Z,7.22
2022-08-18T05:14:18.435Z,7.35
2022-08-18T05:16:48.527Z,8.48
2022-08-18T05:19:23.379Z,8.00
2022-08-18T05:21:59.909Z,7.32
2022-08-18T05:24:34.121Z,7.82
2022-08-18T05:27:05.403Z,7.68
2022-08-18T05:29:45.541Z,7.78
2022-08-18T05:32:37.355Z,7.55
2022-08-18T05:35:07.168Z,7.35
2022-08-18T05:38:15.748Z,7.32
2022-08-18T05:40:46.137Z,8.00
2022-08-18T05:43:16.354Z,7.35
2022-08-18T05:45:43.417Z,7.20
2022-08-18T05:48:10.228Z,7.70
2022-08-18T05:50:37.949Z,7.72
2022-08-18T05:53:14.615Z,7.50
2022-08-18T05:56:28.888Z,7.72
2022-08-18T05:58:57.468Z,7.40
2022-08-18T06:01:30.266Z,8.43
2022-08-18T06:04:09.167Z,8.13
2022-08-18T06:06:37.284Z,8.20
2022-08-18T06:09:40.672Z,8.10
2022-08-18T06:12:24.367Z,7.65
2022-08-18T06:14:52.545Z,7.38
2022-08-18T06:17:32.978Z,8.00
2022-08-18T06:20:17.925Z,8.38
2022-08-18T06:23:08.268Z,7.53
2022-08-18T06:25:55.421Z,13.70
2022-08-18T06:28:22.382Z,16.27
2022-08-18T06:31:04.239Z,8.02
2022-08-18T06:36:12.726Z,6.45
2022-08-18T06:38:48.040Z,6.95
2022-08-18T06:41:41.007Z,6.90
2022-08-18T06:44:13.726Z,6.85
2022-08-18T06:47:08.213Z,7.23
2022-08-18T06:49:43.951Z,7.07
2022-08-18T06:52:29.306Z,6.78
2022-08-18T06:55:02.211Z,9.07
2022-08-18T06:57:34.672Z,6.97
2022-08-18T07:00:24.396Z,6.65
2022-08-18T07:03:03.009Z,6.50
2022-08-18T07:05:32.619Z,5.80
2022-08-18T07:08:28.427Z,7.43
2022-08-18T07:10:55.431Z,7.53
2022-08-18T07:13:25.596Z,6.45
2022-08-18T07:15:56.938Z,6.45
2022-08-18T07:18:28.782Z,6.57
2022-08-18T07:21:01.009Z,6.18
2022-08-18T07:23:33.922Z,5.53
2022-08-18T07:26:15.669Z,5.47
2022-08-18T07:28:45.150Z,6.45
2022-08-18T07:31:17.398Z,6.20
2022-08-18T07:33:52.257Z,5.13
2022-08-18T07:36:21.659Z,5.18
2022-08-18T07:39:14.398Z,5.57
2022-08-18T07:42:07.454Z,4.63
2022-08-18T07:44:45.277Z,5.10
2022-08-18T07:47:36.173Z,5.10
2022-08-18T07:50:27.057Z,5.28
2022-08-18T07:52:56.529Z,4.43
2022-08-18T07:55:28.351Z,3.97
2022-08-18T07:58:15.477Z,4.35
2022-08-18T08:00:58.804Z,3.95
2022-08-18T08:03:41.594Z,4.00
2022-08-18T08:06:12.650Z,3.90
2022-08-18T08:08:43.296Z,3.22
2022-08-18T08:11:44.536Z,3.93
2022-08-18T08:14:26.856Z,3.50
2022-08-18T08:17:25.172Z,5.32
2022-08-18T08:20:19.307Z,3.45
2022-08-18T08:23:09.627Z,4.05
2022-08-18T08:26:03.030Z,4.20
2022-08-18T08:28:56.038Z,12.35
2022-08-18T08:31:42.443Z,3.72
2022-08-18T08:34:28.563Z,4.80
2022-08-18T08:37:02.947Z,5.95
2022-08-18T08:39:46.353Z,4.88
2022-08-18T08:42:31.929Z,3.00
2022-08-18T08:45:24.828Z,4.43
2022-08-18T08:48:08.548Z,3.63
2022-08-18T08:50:48.604Z,3.60
2022-08-18T08:53:22.100Z,4.25
2022-08-18T08:56:01.586Z,4.38
2022-08-18T08:58:48.371Z,3.22
2022-08-18T09:01:30.069Z,4.43
2022-08-18T09:04:07.271Z,3.50
2022-08-18T09:06:46.821Z,3.63
2022-08-18T09:09:19.337Z,3.47
2022-08-18T09:12:01.309Z,3.50
2022-08-18T09:14:50.637Z,3.90
2022-08-18T09:17:34.344Z,3.72
2022-08-18T09:20:18.382Z,3.67
2022-08-18T09:23:20.424Z,3.63
2022-08-18T09:25:56.483Z,3.40
2022-08-18T09:28:29.410Z,4.03
2022-08-18T09:31:02.484Z,3.35
2022-08-18T09:33:44.476Z,4.00
2022-08-18T09:36:36.357Z,3.83
2022-08-18T09:39:54.949Z,3.80
2022-08-18T09:42:48.359Z,3.47
2022-08-18T09:48:30.480Z,3.83
2022-08-18T09:54:21.266Z,3.65
2022-08-18T09:56:54.234Z,3.85
2022-08-18T09:59:35.115Z,3.50
2022-08-18T10:02:03.878Z,3.17
2022-08-18T10:04:35.734Z,3.50
2022-08-18T10:07:43.576Z,3.58
2022-08-18T10:11:01.084Z,3.45
2022-08-18T10:13:16.834Z,3.10
2022-08-18T10:15:43.607Z,2.85
2022-08-18T10:18:39.543Z,3.93
2022-08-18T10:21:22.742Z,3.30
2022-08-18T10:24:29.424Z,3.63
2022-08-18T10:26:54.570Z,2.95
2022-08-18T10:29:26.037Z,3.88
2022-08-18T10:31:55.810Z,3.15
2022-08-18T10:37:43.537Z,2.97
2022-08-18T10:40:13.352Z,3.72
2022-08-18T10:42:44.939Z,3.63
2022-08-18T10:45:30.596Z,3.50
2022-08-18T10:48:24.411Z,3.78
2022-08-18T10:51:05.712Z,3.83
2022-08-18T10:53:44.051Z,3.80
2022-08-18T10:56:43.865Z,3.40
2022-08-18T10:59:17.963Z,3.42
2022-08-18T11:02:06.634Z,4.07
2022-08-18T11:04:41.215Z,3.75
2022-08-18T11:07:19.426Z,3.95
2022-08-18T11:10:04.255Z,3.72
2022-08-18T11:12:50.116Z,3.50
2022-08-18T11:15:29.032Z,3.88
2022-08-18T11:18:30.973Z,3.83
2022-08-18T11:21:25.799Z,3.88
2022-08-18T11:24:07.695Z,3.33
2022-08-18T11:26:45.535Z,4.28
2022-08-18T11:29:27.018Z,3.35
2022-08-18T11:35:16.165Z,3.85
2022-08-18T11:37:53.330Z,3.50
2022-08-18T11:43:15.165Z,3.53
2022-08-18T11:45:46.645Z,3.30
2022-08-18T11:51:25.504Z,3.80
2022-08-18T11:54:05.059Z,3.30
2022-08-18T11:56:37.913Z,3.75
2022-08-18T11:59:35.054Z,3.67
2022-08-18T12:02:21.325Z,3.55
2022-08-18T12:05:03.027Z,4.22
2022-08-18T12:07:35.763Z,3.35
2022-08-18T12:13:02.877Z,2.97
2022-08-18T12:15:44.131Z,3.10
2022-08-18T12:18:18.989Z,2.80
2022-08-18T12:20:53.377Z,3.63
2022-08-18T12:23:20.170Z,3.65
2022-08-18T12:25:48.091Z,3.20
2022-08-18T12:28:19.721Z,3.10
2022-08-18T12:33:47.754Z,3.15
2022-08-18T12:36:15.851Z,4.13
2022-08-18T12:38:44.988Z,3.90
2022-08-18T12:41:23.553Z,3.78
2022-08-18T12:43:58.857Z,4.10
2022-08-18T12:46:26.852Z,3.75
2022-08-18T12:48:53.868Z,3.80
2022-08-18T12:51:24.749Z,4.38
2022-08-18T12:53:59.394Z,3.65
2022-08-18T12:56:30.374Z,3.70
2022-08-18T12:59:05.123Z,4.10
2022-08-18T13:01:33.576Z,3.97
2022-08-18T13:04:12.994Z,4.40
2022-08-18T13:07:05.960Z,4.22
2022-08-18T13:09:52.651Z,4.00
2022-08-18T13:12:20.400Z,3.70
2022-08-18T13:14:47.995Z,3.97
2022-08-18T13:17:33.104Z,4.32
2022-08-18T13:20:09.416Z,4.57
2022-08-18T13:22:40.507Z,4.47
2022-08-18T13:27:37.397Z,4.25
2022-08-18T13:30:16.805Z,4.60
2022-08-18T13:32:58.671Z,4.18
2022-08-18T13:35:29.938Z,4.18
2022-08-18T13:38:15.699Z,4.28
2022-08-18T13:40:50.911Z,3.97
2022-08-18T13:43:21.767Z,4.35
2022-08-18T13:45:52.900Z,4.20
2022-08-18T13:48:20.572Z,3.88
2022-08-18T13:50:47.747Z,4.80
2022-08-18T13:53:21.794Z,3.90
2022-08-18T13:55:49.856Z,4.20
2022-08-18T13:58:21.100Z,4.72
2022-08-18T14:00:54.004Z,4.32
2022-08-18T14:03:42.151Z,3.75
2022-08-18T14:06:11.597Z,4.28
2022-08-18T14:08:40.318Z,3.83
2022-08-18T14:11:07.506Z,4.18
2022-08-18T14:13:44.021Z,4.30
2022-08-18T14:16:18.899Z,2.88
2022-08-18T14:19:09.869Z,2.10
2022-08-18T14:22:11.174Z,2.33
2022-08-18T14:24:58.627Z,3.67
2022-08-18T14:27:35.052Z,1.90
2022-08-18T14:30:08.050Z,1.90
2022-08-18T14:32:36.279Z,1.85
2022-08-18T14:36:03.863Z,1.67
2022-08-18T14:38:10.027Z,1.58
2022-08-18T14:40:41.844Z,1.40
2022-08-18T14:44:13.287Z,1.60
2022-08-18T14:46:43.411Z,1.67
2022-08-18T14:49:48.019Z,1.70
2022-08-18T14:52:59.507Z,1.50
2022-08-18T15:00:08.381Z,1.38
2022-08-18T15:03:31.092Z,1.67
2022-08-18T15:06:17.017Z,1.52
2022-08-18T15:08:49.491Z,1.85
2022-08-18T15:11:19.147Z,1.40
2022-08-18T15:14:20.502Z,1.42
2022-08-18T15:16:53.585Z,2.08
2022-08-18T15:19:58.741Z,1.85
2022-08-18T15:26:10.783Z,1.70
2022-08-18T15:28:40.399Z,1.20
2022-08-18T15:35:16.393Z,1.42
2022-08-18T15:41:48.658Z,1.77
2022-08-18T15:44:18.318Z,1.60
2022-08-18T15:46:47.158Z,1.65
2022-08-18T15:49:33.926Z,1.92
2022-08-18T15:52:00.776Z,2.63
2022-08-18T15:54:36.056Z,1.75
2022-08-18T15:57:02.908Z,1.70
2022-08-18T15:59:34.428Z,2.60
2022-08-18T16:02:11.808Z,1.45
2022-08-18T16:04:41.227Z,1.63
2022-08-18T16:07:11.913Z,1.85
2022-08-18T16:09:38.906Z,2.03
2022-08-18T16:12:09.102Z,1.58
2022-08-18T16:14:40.170Z,1.75
2022-08-18T16:17:09.405Z,1.77
2022-08-18T16:19:44.929Z,1.83
2022-08-18T16:22:11.898Z,1.80
2022-08-18T16:24:38.937Z,1.83
2022-08-18T16:27:06.661Z,1.75
2022-08-18T16:29:33.750Z,2.53
2022-08-18T16:32:00.535Z,2.15
2022-08-18T16:34:31.036Z,2.00
2022-08-18T16:36:58.149Z,1.83
2022-08-18T16:39:24.965Z,2.20
2022-08-18T16:41:51.785Z,2.13
2022-08-18T16:44:19.379Z,2.40
2022-08-18T16:46:46.598Z,2.30
2022-08-18T16:49:13.410Z,2.30
2022-08-18T16:51:40.928Z,1.80
2022-08-18T16:54:07.723Z,2.15
2022-08-18T16:56:35.922Z,1.88
2022-08-18T16:59:21.428Z,2.22
2022-08-18T17:02:06.768Z,1.73
2022-08-18T17:04:34.206Z,2.35
2022-08-18T17:07:04.751Z,2.42
2022-08-18T17:09:33.215Z,2.00
2022-08-18T17:12:00.906Z,2.08
2022-08-18T17:14:30.290Z,2.08
2022-08-18T17:16:58.631Z,1.98
2022-08-18T17:19:29.998Z,1.98
2022-08-18T17:21:57.136Z,2.28
2022-08-18T17:24:31.812Z,1.90
2022-08-18T17:27:27.236Z,2.13
2022-08-18T17:30:08.547Z,1.85
2022-08-18T17:32:47.849Z,2.20
2022-08-18T17:35:16.562Z,2.00
2022-08-18T17:41:24.635Z,2.63
2022-08-18T17:43:54.643Z,2.25
2022-08-18T17:46:38.480Z,2.58
2022-08-18T17:49:17.831Z,2.40
2022-08-18T17:51:55.197Z,2.30
2022-08-18T17:54:36.970Z,2.05
2022-08-18T17:57:12.518Z,2.05
2022-08-18T17:59:53.880Z,2.10
2022-08-18T18:02:29.547Z,2.40
2022-08-18T18:04:59.820Z,2.10
2022-08-18T18:07:53.166Z,2.53
2022-08-18T18:11:05.480Z,2.28
2022-08-18T18:13:33.121Z,2.13
2022-08-18T18:16:21.683Z,2.47
2022-08-18T18:18:59.963Z,2.05
2022-08-18T18:22:00.165Z,2.22
2022-08-18T18:24:16.026Z,2.05
2022-08-18T18:26:48.031Z,2.28
2022-08-18T18:29:37.742Z,2.08
2022-08-18T18:32:24.197Z,2.28
2022-08-18T18:35:18.052Z,2.03
2022-08-18T18:38:04.626Z,2.55
2022-08-18T18:40:36.396Z,2.22
2022-08-18T18:43:28.879Z,2.30
2022-08-18T18:46:05.006Z,2.20
2022-08-18T18:48:54.543Z,2.10
2022-08-18T18:51:58.853Z,2.70
2022-08-18T18:54:43.793Z,2.10
2022-08-18T18:57:37.849Z,1.90
2022-08-18T19:00:30.224Z,2.38
2022-08-18T19:03:17.691Z,2.90
2022-08-18T19:05:57.470Z,2.05
2022-08-18T19:09:02.716Z,2.20
2022-08-18T19:11:45.255Z,2.20
2022-08-18T19:14:20.088Z,2.20
2022-08-18T19:16:46.830Z,1.88
2022-08-18T19:19:36.750Z,2.30
2022-08-18T19:22:29.552Z,2.80
2022-08-18T19:25:03.437Z,2.33
2022-08-18T19:27:56.609Z,1.92
2022-08-18T19:30:23.870Z,2.08
2022-08-18T19:33:00.476Z,3.00
2022-08-18T19:35:58.609Z,2.25
2022-08-18T19:38:49.958Z,2.25
2022-08-18T19:46:32.189Z,2.15
2022-08-18T19:49:06.039Z,2.80
2022-08-18T19:51:42.313Z,2.30
2022-08-18T19:54:27.804Z,2.42
2022-08-18T19:57:32.124Z,2.85
2022-08-18T20:00:18.278Z,2.60
2022-08-18T20:03:04.220Z,2.35
2022-08-18T20:05:36.400Z,2.05
2022-08-18T20:08:27.656Z,2.15
2022-08-18T20:11:15.934Z,2.20
2022-08-18T20:13:45.471Z,2.35
2022-08-18T20:16:44.231Z,2.28
2022-08-18T20:19:31.491Z,2.53
2022-08-18T20:22:04.073Z,2.35
2022-08-18T20:24:30.776Z,2.53
2022-08-18T20:27:40.872Z,3.13
2022-08-18T20:30:19.754Z,2.00
2022-08-18T20:33:20.620Z,2.28
2022-08-18T20:36:03.911Z,2.53
2022-08-18T20:38:49.207Z,2.40
2022-08-18T20:41:44.530Z,2.25
2022-08-18T20:44:29.894Z,2.50
2022-08-18T20:47:33.983Z,2.47
2022-08-18T20:50:00.727Z,2.17
2022-08-18T20:52:58.176Z,2.50
2022-08-18T20:55:30.616Z,2.50
2022-08-18T20:58:08.322Z,2.30
2022-08-18T21:00:41.365Z,3.00
2022-08-18T21:03:12.432Z,2.63
2022-08-18T21:05:43.629Z,2.75
2022-08-18T21:08:16.508Z,2.95
2022-08-18T21:10:55.624Z,2.63
2022-08-18T21:13:46.067Z,2.53
2022-08-18T21:16:38.853Z,2.50
2022-08-18T21:19:40.198Z,2.70
2022-08-18T21:22:10.509Z,2.67
2022-08-18T21:24:38.981Z,2.50
2022-08-18T21:27:11.477Z,2.22
2022-08-18T21:29:47.390Z,2.15
2022-08-18T21:32:24.810Z,2.55
2022-08-18T21:34:51.855Z,3.08
2022-08-18T21:37:20.209Z,2.75
2022-08-18T21:39:48.305Z,2.70
2022-08-18T21:42:27.865Z,2.58
2022-08-18T21:45:00.865Z,2.75
2022-08-18T21:47:29.979Z,2.50
2022-08-18T21:50:17.535Z,2.95
2022-08-18T21:53:02.202Z,3.13
2022-08-18T21:55:37.313Z,2.83
2022-08-18T21:58:10.002Z,2.45
2022-08-18T22:00:39.552Z,2.58
2022-08-18T22:03:23.548Z,2.85
2022-08-18T22:06:18.966Z,2.55
2022-08-18T22:08:49.885Z,3.10
2022-08-18T22:12:00.833Z,3.05
2022-08-18T22:14:54.806Z,2.67
2022-08-18T22:17:28.630Z,2.97
2022-08-18T22:20:15.876Z,3.10
2022-08-18T22:23:08.729Z,2.80
2022-08-18T22:25:35.540Z,2.78
2022-08-18T22:28:02.474Z,2.70
2022-08-18T22:30:29.277Z,3.22
2022-08-18T22:32:56.063Z,2.80
2022-08-18T22:35:23.382Z,2.83
2022-08-18T22:37:50.936Z,2.80
2022-08-18T22:40:21.504Z,2.40
2022-08-18T22:42:49.088Z,2.47
2022-08-18T22:45:16.060Z,2.28
2022-08-18T22:47:45.090Z,3.00
2022-08-18T22:50:13.750Z,2.85
2022-08-18T22:52:48.251Z,2.45
2022-08-18T22:55:22.045Z,2.83
2022-08-18T22:57:55.772Z,2.78
2022-08-18T23:00:25.329Z,3.03
2022-08-18T23:02:53.973Z,2.85
2022-08-18T23:05:21.763Z,2.67
2022-08-18T23:07:48.926Z,2.53
2022-08-18T23:10:16.751Z,2.40
2022-08-18T23:12:44.601Z,2.72
2022-08-18T23:15:11.796Z,2.67
2022-08-18T23:17:40.680Z,3.22
2022-08-18T23:20:11.363Z,2.70
2022-08-18T23:22:39.080Z,2.90
2022-08-18T23:25:08.792Z,2.95
2022-08-18T23:27:36.716Z,3.40
2022-08-18T23:30:04.874Z,2.90
2022-08-18T23:32:32.229Z,2.53
2022-08-18T23:34:59.428Z,2.63
2022-08-18T23:37:26.506Z,2.80
2022-08-18T23:39:53.411Z,3.10
2022-08-18T23:42:22.987Z,2.35
2022-08-18T23:44:50.431Z,2.70
2022-08-18T23:47:19.582Z,2.92
2022-08-18T23:49:46.743Z,2.75
2022-08-18T23:52:13.780Z,2.92
2022-08-18T23:54:40.612Z,3.28
2022-08-18T23:57:07.409Z,2.78
2022-08-18T23:59:34.254Z,2.80
